Time;durP1;ratioP1;P1;durP2;ratioP2;P2;SDS_P1;SDS_P2;PMS_P1;PMS_P2;Temp;Humidity;BMP_temperature;BMP_pressure;BME280_temperature;BME280_humidity;BME280_pressure;Samples;Min_cycle;Max_cycle;Signal;HPM_P1;HPM_P2
2023/11/15 00:02:11;;;;;;;1.88;0.73;;;;;;;8.98;100.00;96392.59;5022319;28;20049;-69
2023/11/15 00:04:36;;;;;;;3.80;1.55;;;;;;;8.98;100.00;96395.31;5035343;28;20045;-70
2023/11/15 00:07:02;;;;;;;1.42;0.82;;;;;;;8.93;100.00;96380.03;5031499;28;20057;-68
2023/11/15 00:09:29;;;;;;;2.10;0.77;;;;;;;8.85;100.00;96391.97;5031104;28;20037;-69
2023/11/15 00:11:56;;;;;;;2.67;0.80;;;;;;;8.83;100.00;96386.09;5028614;28;20048;-68
2023/11/15 00:14:22;;;;;;;1.48;0.70;;;;;;;8.92;100.00;96378.47;5022281;28;20102;-68
2023/11/15 00:16:47;;;;;;;4.68;0.93;;;;;;;9.06;100.00;96382.59;5031642;28;20041;-69
2023/11/15 00:19:14;;;;;;;3.78;0.88;;;;;;;9.16;100.00;96388.25;5015715;28;20069;-69
2023/11/15 00:21:43;;;;;;;3.42;0.80;;;;;;;9.19;100.00;96392.97;5020374;28;20045;-68
2023/11/15 00:24:08;;;;;;;6.63;0.88;;;;;;;9.23;100.00;96403.97;5015625;28;20038;-68
2023/11/15 00:26:34;;;;;;;2.85;0.63;;;;;;;9.19;100.00;96398.44;5025106;28;20049;-67
2023/11/15 00:28:59;;;;;;;5.60;0.90;;;;;;;9.23;100.00;96397.72;5038950;28;20052;-67
2023/11/15 00:31:24;;;;;;;4.70;1.00;;;;;;;9.17;100.00;96416.34;5031916;28;20045;-68
2023/11/15 00:33:51;;;;;;;4.60;1.00;;;;;;;9.15;100.00;96402.28;5022329;28;20038;-69
2023/11/15 00:36:19;;;;;;;5.05;1.00;;;;;;;9.08;100.00;96402.94;5022770;28;20040;-70
2023/11/15 00:38:49;;;;;;;3.22;1.00;;;;;;;9.04;100.00;96399.34;5030918;28;20484;-69
2023/11/15 00:41:15;;;;;;;4.30;0.80;;;;;;;8.94;100.00;96410.88;5027835;28;20073;-69
2023/11/15 00:43:41;;;;;;;8.82;1.40;;;;;;;8.86;100.00;96406.41;5029468;28;20037;-70
2023/11/15 00:46:09;;;;;;;4.13;0.98;;;;;;;8.77;100.00;96404.72;5017087;28;20049;-70
2023/11/15 00:48:35;;;;;;;4.95;1.27;;;;;;;8.72;100.00;96393.31;5023860;28;20052;-70
2023/11/15 00:51:00;;;;;;;1.83;0.90;;;;;;;8.72;100.00;96401.50;5028694;28;20040;-71
2023/11/15 00:53:26;;;;;;;3.60;0.77;;;;;;;8.70;100.00;96407.31;5020222;28;20516;-70
2023/11/15 00:55:51;;;;;;;4.15;0.80;;;;;;;8.63;100.00;96412.66;5034916;28;20049;-71
2023/11/15 00:58:17;;;;;;;3.65;1.00;;;;;;;8.64;100.00;96413.44;5029769;28;20566;-69
2023/11/15 01:00:47;;;;;;;2.58;0.80;;;;;;;8.59;100.00;96409.06;5031688;28;20068;-69
2023/11/15 01:03:25;;;;;;;6.10;1.00;;;;;;;8.53;100.00;96389.44;5030537;28;20041;-69
2023/11/15 01:05:51;;;;;;;3.97;0.90;;;;;;;8.44;100.00;96388.88;5035166;28;20056;-70
2023/11/15 01:08:16;;;;;;;4.30;1.17;;;;;;;8.49;100.00;96383.13;5029443;28;20392;-70
2023/11/15 01:10:42;;;;;;;2.35;1.00;;;;;;;8.53;100.00;96380.47;5026780;28;20709;-70
2023/11/15 01:13:09;;;;;;;5.00;1.02;;;;;;;8.51;100.00;96397.19;5020416;28;20571;-69
2023/11/15 01:15:35;;;;;;;3.38;0.93;;;;;;;8.51;100.00;96393.69;5033723;28;20040;-70
2023/11/15 01:18:07;;;;;;;5.07;0.95;;;;;;;8.42;100.00;96388.44;5023280;28;20095;-70
2023/11/15 01:20:36;;;;;;;7.35;1.05;;;;;;;8.42;100.00;96391.19;5024365;28;20500;-67
2023/11/15 01:23:05;;;;;;;5.50;1.02;;;;;;;8.39;100.00;96391.84;5025103;28;20140;-70
2023/11/15 01:25:31;;;;;;;4.65;1.10;;;;;;;8.38;100.00;96393.81;5018628;28;20045;-70
2023/11/15 01:27:58;;;;;;;4.32;0.93;;;;;;;8.36;100.00;96404.28;5036890;28;20127;-70
2023/11/15 01:30:23;;;;;;;3.08;0.80;;;;;;;8.37;100.00;96418.72;5020198;28;20048;-69
2023/11/15 01:32:51;;;;;;;2.08;0.93;;;;;;;8.38;100.00;96412.13;5031105;28;20116;-71
2023/11/15 01:35:17;;;;;;;2.72;1.27;;;;;;;8.41;100.00;96406.75;5017249;28;20036;-69
2023/11/15 01:37:44;;;;;;;2.67;1.00;;;;;;;8.40;100.00;96405.16;5032921;28;20037;-70
2023/11/15 01:40:11;;;;;;;4.43;1.10;;;;;;;8.42;100.00;96408.34;5027174;28;20038;-69
2023/11/15 01:42:40;;;;;;;3.85;0.80;;;;;;;8.44;100.00;96418.13;5023748;28;20037;-70
2023/11/15 01:45:06;;;;;;;4.87;1.10;;;;;;;8.40;100.00;96415.28;5039386;28;20098;-70
2023/11/15 01:47:33;;;;;;;4.20;0.77;;;;;;;8.41;100.00;96438.72;5031223;28;20381;-70
2023/11/15 01:50:05;;;;;;;3.45;0.80;;;;;;;8.46;100.00;96446.63;5025356;28;20388;-70
2023/11/15 01:52:31;;;;;;;1.20;0.80;;;;;;;8.46;100.00;96446.63;5023595;28;20408;-70
2023/11/15 01:54:58;;;;;;;5.55;0.90;;;;;;;8.50;100.00;96454.88;5024032;28;20044;-69
2023/11/15 01:57:24;;;;;;;5.10;1.15;;;;;;;8.54;100.00;96458.50;5026983;28;20588;-69
2023/11/15 01:59:51;;;;;;;4.70;0.90;;;;;;;8.55;100.00;96458.13;5022265;28;20464;-69
2023/11/15 02:02:16;;;;;;;2.17;0.80;;;;;;;8.65;100.00;96480.53;5018028;28;20033;-69
2023/11/15 02:04:42;;;;;;;4.45;1.58;;;;;;;8.57;100.00;96483.13;5023063;28;20041;-69
2023/11/15 02:07:08;;;;;;;6.03;0.90;;;;;;;8.67;100.00;96483.69;5024473;28;20100;-69
2023/11/15 02:09:35;;;;;;;4.47;1.13;;;;;;;8.68;100.00;96496.19;5023602;28;20651;-70
2023/11/15 02:12:01;;;;;;;9.30;1.25;;;;;;;8.65;100.00;96505.91;5032695;28;20048;-69
2023/11/15 02:14:27;;;;;;;4.38;0.93;;;;;;;8.65;100.00;96508.63;5023593;28;20038;-70
2023/11/15 02:16:52;;;;;;;5.55;1.00;;;;;;;8.71;100.00;96515.38;5031655;28;20484;-70
2023/11/15 02:19:17;;;;;;;10.15;1.40;;;;;;;8.72;100.00;96516.19;5025991;28;20068;-70
2023/11/15 02:21:43;;;;;;;4.03;0.80;;;;;;;8.80;100.00;96526.91;5030945;28;20722;-70
2023/11/15 02:24:10;;;;;;;3.70;0.93;;;;;;;8.76;100.00;96542.41;5018901;28;20049;-70
2023/11/15 02:26:35;;;;;;;2.85;1.00;;;;;;;8.71;100.00;96544.63;5035847;28;20135;-70
2023/11/15 02:29:01;;;;;;;5.45;1.15;;;;;;;8.66;100.00;96550.38;5032033;28;20068;-70
2023/11/15 02:31:26;;;;;;;3.88;0.80;;;;;;;8.68;100.00;96551.59;5026193;28;20507;-70
2023/11/15 02:33:51;;;;;;;4.68;1.00;;;;;;;8.66;100.00;96547.63;5023799;28;20068;-70
2023/11/15 02:36:17;;;;;;;3.42;0.90;;;;;;;8.65;100.00;96557.00;5031401;28;20040;-70
2023/11/15 02:38:42;;;;;;;4.57;1.20;;;;;;;8.60;100.00;96558.03;5042146;28;20037;-70
2023/11/15 02:41:09;;;;;;;4.18;1.13;;;;;;;8.62;100.00;96555.75;5018638;28;20041;-70
2023/11/15 02:43:35;;;;;;;5.53;0.93;;;;;;;8.58;100.00;96549.44;5022799;28;20053;-70
2023/11/15 02:46:00;;;;;;;3.85;1.00;;;;;;;8.59;100.00;96557.25;5026436;28;20037;-70
2023/11/15 02:48:26;;;;;;;4.75;1.00;;;;;;;8.62;100.00;96563.94;5024434;28;20397;-69
2023/11/15 02:50:52;;;;;;;4.20;1.13;;;;;;;8.64;100.00;96560.84;5031164;28;20099;-71
2023/11/15 02:53:19;;;;;;;4.57;1.20;;;;;;;8.54;100.00;96554.81;5022214;28;20071;-70
2023/11/15 02:55:46;;;;;;;3.88;1.00;;;;;;;8.53;100.00;96572.31;5041599;28;20175;-71
2023/11/15 02:58:11;;;;;;;3.47;1.13;;;;;;;8.54;100.00;96575.88;5024878;28;20459;-70
2023/11/15 03:00:37;;;;;;;5.82;1.15;;;;;;;8.52;100.00;96589.09;5029699;28;20045;-70
2023/11/15 03:03:04;;;;;;;6.32;1.20;;;;;;;8.50;100.00;96588.63;5029190;28;20041;-67
2023/11/15 03:05:31;;;;;;;4.30;0.93;;;;;;;8.53;100.00;96602.34;5022436;28;20069;-70
2023/11/15 03:07:57;;;;;;;5.22;1.08;;;;;;;8.54;100.00;96594.97;5022970;28;20124;-70
2023/11/15 03:10:23;;;;;;;5.93;1.13;;;;;;;8.54;100.00;96601.22;5023653;28;20828;-70
2023/11/15 03:12:48;;;;;;;5.05;0.90;;;;;;;8.60;100.00;96599.78;5028755;28;20114;-71
2023/11/15 03:15:14;;;;;;;4.50;1.10;;;;;;;8.56;100.00;96609.84;5008599;28;20247;-71
2023/11/15 03:17:40;;;;;;;9.73;1.45;;;;;;;8.56;100.00;96606.31;5028872;28;20465;-71
2023/11/15 03:20:06;;;;;;;7.28;1.10;;;;;;;8.55;100.00;96610.19;5027524;28;20078;-69
2023/11/15 03:22:32;;;;;;;4.07;1.10;;;;;;;8.64;100.00;96626.38;5030155;28;20098;-71
2023/11/15 03:24:58;;;;;;;4.80;1.23;;;;;;;8.64;100.00;96624.44;5025861;28;20045;-69
2023/11/15 03:27:23;;;;;;;3.90;1.33;;;;;;;8.68;100.00;96624.50;5021974;28;20861;-71
2023/11/15 03:29:49;;;;;;;3.15;1.00;;;;;;;8.61;100.00;96630.63;5025461;28;20056;-71
2023/11/15 03:32:14;;;;;;;3.20;1.10;;;;;;;8.57;100.00;96630.53;5028393;28;20132;-70
2023/11/15 03:34:43;;;;;;;6.30;1.10;;;;;;;8.62;100.00;96645.84;5034048;28;20504;-69
2023/11/15 03:37:09;;;;;;;4.25;1.10;;;;;;;8.57;100.00;96648.84;5028211;28;20044;-71
2023/11/15 03:39:34;;;;;;;5.57;1.30;;;;;;;8.49;100.00;96644.38;5027478;28;20045;-71
2023/11/15 03:42:00;;;;;;;3.78;1.10;;;;;;;8.48;100.00;96653.69;5045795;28;20091;-70
2023/11/15 03:44:26;;;;;;;2.65;0.90;;;;;;;8.46;100.00;96653.25;5015444;28;20045;-70
2023/11/15 03:46:51;;;;;;;2.88;0.80;;;;;;;8.44;100.00;96671.94;5029872;28;20037;-70
2023/11/15 03:49:17;;;;;;;3.38;0.80;;;;;;;8.43;100.00;96662.97;5019976;28;20033;-70
2023/11/15 03:51:42;;;;;;;4.00;0.90;;;;;;;8.35;100.00;96666.63;5030029;28;20128;-71
2023/11/15 03:54:08;;;;;;;6.80;1.75;;;;;;;8.34;100.00;96671.28;5037073;28;20042;-70
2023/11/15 03:56:33;;;;;;;6.20;1.20;;;;;;;8.32;100.00;96661.88;5041494;28;20029;-70
2023/11/15 03:58:59;;;;;;;2.08;0.90;;;;;;;8.27;100.00;96662.94;5024169;28;20397;-70
2023/11/15 04:01:25;;;;;;;9.55;1.58;;;;;;;8.23;100.00;96675.72;5031330;28;20118;-70
2023/11/15 04:03:50;;;;;;;5.50;1.30;;;;;;;8.18;100.00;96690.38;5035978;28;20033;-69
2023/11/15 04:06:16;;;;;;;5.88;1.02;;;;;;;8.14;100.00;96692.25;5031469;28;20043;-70
2023/11/15 04:08:42;;;;;;;3.28;1.35;;;;;;;8.18;100.00;96689.59;5032025;28;20049;-69
2023/11/15 04:11:07;;;;;;;5.80;1.42;;;;;;;8.12;100.00;96686.34;5034156;28;20458;-69
2023/11/15 04:13:36;;;;;;;5.78;1.00;;;;;;;8.19;100.00;96691.16;5028394;28;20124;-69
2023/11/15 04:16:03;;;;;;;5.20;1.60;;;;;;;8.13;100.00;96696.09;5040252;28;20110;-70
2023/11/15 04:18:30;;;;;;;6.03;1.10;;;;;;;8.17;100.00;96698.91;5032179;28;20065;-70
2023/11/15 04:20:56;;;;;;;6.13;1.45;;;;;;;8.18;100.00;96697.78;5046108;28;20041;-71
2023/11/15 04:23:23;;;;;;;7.38;1.00;;;;;;;8.11;100.00;96705.78;5029761;28;20558;-70
2023/11/15 04:25:50;;;;;;;9.18;1.30;;;;;;;8.09;100.00;96702.63;5026824;28;20100;-69
2023/11/15 04:28:15;;;;;;;5.88;1.73;;;;;;;8.06;100.00;96712.28;5036739;28;20044;-70
2023/11/15 04:30:41;;;;;;;7.43;1.10;;;;;;;8.04;100.00;96709.91;5038583;28;20450;-70
2023/11/15 04:33:07;;;;;;;4.40;1.10;;;;;;;8.00;100.00;96703.56;5018821;28;20069;-70
2023/11/15 04:35:32;;;;;;;3.75;1.63;;;;;;;8.02;100.00;96714.13;5034445;28;20081;-69
2023/11/15 04:37:58;;;;;;;8.25;1.52;;;;;;;8.00;100.00;96717.19;5028466;28;20044;-69
2023/11/15 04:40:25;;;;;;;4.53;1.00;;;;;;;8.06;100.00;96708.78;5015753;28;20276;-69
2023/11/15 04:42:51;;;;;;;5.57;1.25;;;;;;;8.06;100.00;96703.31;5037868;28;20044;-69
2023/11/15 04:45:17;;;;;;;6.80;1.13;;;;;;;8.10;100.00;96706.91;5015524;28;20044;-69
2023/11/15 04:47:43;;;;;;;6.10;1.05;;;;;;;8.16;100.00;96709.03;5034665;28;20049;-70
2023/11/15 04:50:10;;;;;;;6.93;1.17;;;;;;;8.21;100.00;96706.06;5021196;28;20053;-70
2023/11/15 04:52:35;;;;;;;5.63;0.90;;;;;;;8.27;100.00;96706.59;5027768;28;20041;-71
2023/11/15 04:55:01;;;;;;;7.70;1.00;;;;;;;8.26;100.00;96705.00;5034771;28;20064;-71
2023/11/15 04:57:26;;;;;;;2.65;0.90;;;;;;;8.27;100.00;96714.00;5022305;28;20037;-71
2023/11/15 04:59:55;;;;;;;3.47;0.88;;;;;;;8.28;100.00;96710.88;5020782;28;20069;-70
2023/11/15 05:02:20;;;;;;;6.50;1.13;;;;;;;8.25;100.00;96719.78;5035913;28;20106;-70
2023/11/15 05:04:46;;;;;;;7.20;0.98;;;;;;;8.24;100.00;96721.72;5031634;28;20040;-71
2023/11/15 05:07:11;;;;;;;1.65;0.70;;;;;;;8.20;100.00;96709.91;5027853;28;20118;-70
2023/11/15 05:09:37;;;;;;;3.83;0.70;;;;;;;8.18;100.00;96719.63;5024531;28;20132;-71
2023/11/15 05:12:03;;;;;;;2.50;0.80;;;;;;;8.15;100.00;96723.03;5016811;28;20034;-68
2023/11/15 05:14:29;;;;;;;3.75;0.80;;;;;;;8.10;100.00;96726.81;5020126;28;20049;-71
2023/11/15 05:16:55;;;;;;;3.80;0.70;;;;;;;8.06;100.00;96730.59;5025938;28;20095;-70
2023/11/15 05:19:20;;;;;;;4.70;0.80;;;;;;;7.98;100.00;96716.75;5025130;28;20110;-70
2023/11/15 05:21:45;;;;;;;2.75;0.80;;;;;;;7.94;100.00;96721.34;5022819;28;20045;-69
2023/11/15 05:24:11;;;;;;;3.35;0.90;;;;;;;7.87;100.00;96732.06;5022863;28;20044;-70
2023/11/15 05:26:36;;;;;;;1.95;0.63;;;;;;;7.83;100.00;96731.13;5026262;28;20138;-70
2023/11/15 05:29:02;;;;;;;3.50;0.63;;;;;;;7.82;100.00;96737.75;5026240;28;20041;-68
2023/11/15 05:31:27;;;;;;;1.92;0.65;;;;;;;7.77;100.00;96743.44;5030019;28;20041;-69
2023/11/15 05:33:52;;;;;;;2.55;0.50;;;;;;;7.72;100.00;96739.03;5027965;28;20036;-69
2023/11/15 05:36:18;;;;;;;3.22;0.88;;;;;;;7.67;100.00;96750.19;5024974;28;20510;-69
2023/11/15 05:38:43;;;;;;;1.05;0.50;;;;;;;7.65;100.00;96755.19;5022537;28;20041;-69
2023/11/15 05:41:08;;;;;;;1.95;0.70;;;;;;;7.68;100.00;96753.72;5023223;28;20041;-68
2023/11/15 05:43:34;;;;;;;1.45;0.70;;;;;;;7.69;100.00;96752.56;5023915;28;20047;-69
2023/11/15 05:46:00;;;;;;;2.53;0.65;;;;;;;7.72;100.00;96763.56;5008561;28;20041;-70
2023/11/15 05:48:25;;;;;;;1.77;0.60;;;;;;;7.76;100.00;96764.47;5017241;28;20670;-70
2023/11/15 05:50:50;;;;;;;1.77;0.60;;;;;;;7.80;100.00;96773.53;5031533;28;20396;-70
2023/11/15 05:53:16;;;;;;;5.13;1.40;;;;;;;7.84;100.00;96779.88;5031274;28;20049;-69
2023/11/15 05:55:42;;;;;;;3.20;0.80;;;;;;;7.83;100.00;96766.59;5023490;28;20037;-71
2023/11/15 05:58:09;;;;;;;4.18;0.80;;;;;;;7.84;100.00;96771.69;5035209;28;20384;-68
2023/11/15 06:00:34;;;;;;;3.40;0.80;;;;;;;7.82;100.00;96782.16;5032990;28;20042;-69
2023/11/15 06:03:00;;;;;;;3.22;0.80;;;;;;;7.88;100.00;96784.66;5018739;28;20038;-68
2023/11/15 06:05:25;;;;;;;5.60;0.93;;;;;;;7.75;100.00;96794.81;5019663;28;20041;-68
2023/11/15 06:07:51;;;;;;;5.57;1.00;;;;;;;7.75;100.00;96792.88;5022529;28;20125;-68
2023/11/15 06:10:16;;;;;;;4.18;1.20;;;;;;;7.70;100.00;96787.66;5024196;28;20087;-69
2023/11/15 06:12:42;;;;;;;3.60;1.00;;;;;;;7.71;100.00;96797.44;5038718;28;20037;-68
2023/11/15 06:15:08;;;;;;;10.48;2.65;;;;;;;7.85;100.00;96802.50;5033209;28;20045;-68
2023/11/15 06:17:39;;;;;;;3.97;1.00;;;;;;;7.85;100.00;96797.06;5032191;28;20040;-69
2023/11/15 06:20:05;;;;;;;4.80;0.88;;;;;;;7.76;100.00;96794.47;5033611;28;20534;-68
2023/11/15 06:22:31;;;;;;;3.75;1.00;;;;;;;7.79;100.00;96787.50;5020738;28;20052;-68
2023/11/15 06:24:56;;;;;;;6.80;1.15;;;;;;;7.77;100.00;96784.34;5033688;28;20042;-69
2023/11/15 06:27:22;;;;;;;2.03;0.77;;;;;;;7.77;100.00;96795.25;5030771;28;20247;-69
2023/11/15 06:29:48;;;;;;;6.10;1.10;;;;;;;7.76;100.00;96799.91;5036992;28;20140;-69
2023/11/15 06:32:15;;;;;;;4.18;0.90;;;;;;;7.65;100.00;96798.78;5036524;28;20121;-69
2023/11/15 06:34:44;;;;;;;2.72;1.00;;;;;;;7.61;100.00;96804.16;5033400;28;20099;-69
2023/11/15 06:37:13;;;;;;;1.60;0.90;;;;;;;7.57;100.00;96814.16;5037172;28;20037;-69
2023/11/15 06:39:42;;;;;;;6.45;1.08;;;;;;;7.53;100.00;96807.03;5043579;28;20064;-69
2023/11/15 06:42:09;;;;;;;6.77;1.23;;;;;;;7.53;100.00;96810.53;5039912;28;20041;-69
2023/11/15 06:44:37;;;;;;;7.45;1.10;;;;;;;7.53;100.00;96816.00;5028653;28;20521;-69
2023/11/15 06:47:03;;;;;;;3.80;1.08;;;;;;;7.53;100.00;96815.19;5035746;28;20044;-72
2023/11/15 06:49:29;;;;;;;4.35;0.90;;;;;;;7.67;100.00;96821.06;5045146;28;20037;-69
2023/11/15 06:51:55;;;;;;;3.33;0.80;;;;;;;7.66;100.00;96824.94;5031143;28;20044;-69
2023/11/15 06:54:21;;;;;;;8.50;1.10;;;;;;;7.70;100.00;96819.59;5025992;28;20797;-68
2023/11/15 06:56:48;;;;;;;2.30;0.95;;;;;;;7.65;100.00;96834.22;5021520;28;20144;-68
2023/11/15 06:59:17;;;;;;;3.03;0.95;;;;;;;7.69;100.00;96826.16;5028838;28;20745;-69
2023/11/15 07:01:49;;;;;;;2.33;1.10;;;;;;;7.66;100.00;96823.00;5036787;28;20087;-68
2023/11/15 07:04:15;;;;;;;2.83;0.90;;;;;;;7.66;100.00;96811.31;5030707;28;20045;-68
2023/11/15 07:06:47;;;;;;;5.55;1.33;;;;;;;7.74;100.00;96831.38;5027442;28;20056;-68
2023/11/15 07:09:15;;;;;;;4.07;1.00;;;;;;;7.68;100.00;96833.56;5017853;28;20060;-68
2023/11/15 07:11:47;;;;;;;6.47;1.10;;;;;;;7.68;100.00;96840.94;5020864;28;20099;-69
2023/11/15 07:14:15;;;;;;;4.05;1.00;;;;;;;7.90;100.00;96840.41;5027527;28;20396;-69
2023/11/15 07:16:48;;;;;;;3.90;1.27;;;;;;;8.11;100.00;96844.91;5034487;28;20124;-68
2023/11/15 07:19:14;;;;;;;3.92;0.90;;;;;;;8.34;100.00;96837.75;5026323;28;20041;-68
2023/11/15 07:21:40;;;;;;;5.38;1.25;;;;;;;8.76;100.00;96850.19;5021201;28;20065;-68
2023/11/15 07:24:06;;;;;;;4.55;0.90;;;;;;;9.13;100.00;96845.28;5033501;28;20068;-68
2023/11/15 07:26:35;;;;;;;7.45;1.13;;;;;;;9.10;100.00;96835.03;5020531;28;20041;-67
2023/11/15 07:29:02;;;;;;;4.97;0.90;;;;;;;9.29;100.00;96845.28;5027350;28;20460;-68
2023/11/15 07:31:34;;;;;;;6.70;1.10;;;;;;;9.48;100.00;96838.25;5030618;28;20041;-68
2023/11/15 07:34:00;;;;;;;6.82;1.10;;;;;;;9.78;100.00;96844.03;5024839;28;20037;-68
2023/11/15 07:36:34;;;;;;;5.10;1.17;;;;;;;9.90;100.00;96851.28;5016569;28;20112;-68
2023/11/15 07:39:01;;;;;;;4.20;1.52;;;;;;;10.13;100.00;96849.44;5014168;28;20049;-68
2023/11/15 07:41:27;;;;;;;6.18;1.08;;;;;;;10.04;100.00;96848.06;5016010;28;20107;-67
2023/11/15 07:43:54;;;;;;;10.50;1.38;;;;;;;10.18;100.00;96855.78;5029652;28;20536;-68
2023/11/15 07:46:23;;;;;;;7.85;1.08;;;;;;;10.02;100.00;96856.63;5029080;28;20104;-68
2023/11/15 07:48:49;;;;;;;3.80;1.38;;;;;;;10.05;100.00;96860.63;5032298;28;20044;-68
2023/11/15 07:51:14;;;;;;;7.20;1.13;;;;;;;10.42;100.00;96865.66;5024037;28;20041;-68
2023/11/15 07:53:40;;;;;;;5.95;1.42;;;;;;;10.47;100.00;96863.44;5027437;28;20047;-68
2023/11/15 07:56:06;;;;;;;6.15;1.90;;;;;;;10.58;100.00;96871.06;5026472;28;20040;-69
2023/11/15 07:58:33;;;;;;;6.78;1.40;;;;;;;10.85;100.00;96864.50;5033332;28;20048;-68
2023/11/15 08:00:59;;;;;;;5.65;1.55;;;;;;;11.12;100.00;96872.81;5025323;28;20036;-68
2023/11/15 08:03:28;;;;;;;7.43;1.20;;;;;;;11.32;100.00;96875.50;5015902;28;20578;-68
2023/11/15 08:05:55;;;;;;;2.97;1.13;;;;;;;10.82;100.00;96880.88;5038848;28;20040;-68
2023/11/15 08:08:22;;;;;;;6.07;1.25;;;;;;;11.22;100.00;96882.38;5024824;28;20114;-68
2023/11/15 08:10:50;;;;;;;4.75;1.00;;;;;;;11.46;100.00;96873.75;5020798;28;20045;-69
2023/11/15 08:13:19;;;;;;;4.43;1.02;;;;;;;11.34;100.00;96886.88;5024614;28;20106;-68
2023/11/15 08:15:48;;;;;;;6.37;1.73;;;;;;;11.29;100.00;96886.03;5027123;28;20484;-69
2023/11/15 08:18:14;;;;;;;8.30;1.20;;;;;;;11.54;100.00;96891.13;5031632;28;20298;-67
2023/11/15 08:20:43;;;;;;;3.83;1.33;;;;;;;12.04;100.00;96896.56;5032967;28;20037;-68
2023/11/15 08:23:10;;;;;;;7.00;1.40;;;;;;;12.37;100.00;96901.34;5026134;28;20136;-69
2023/11/15 08:25:45;;;;;;;9.77;1.30;;;;;;;11.96;100.00;96897.66;5020647;28;20064;-69
2023/11/15 08:28:11;;;;;;;5.88;1.38;;;;;;;12.39;100.00;96898.22;5024020;28;20049;-68
2023/11/15 08:30:36;;;;;;;4.75;1.25;;;;;;;12.55;100.00;96917.22;5021161;28;20099;-69
2023/11/15 08:33:05;;;;;;;2.60;0.82;;;;;;;12.30;100.00;96905.94;5026946;28;20571;-68
2023/11/15 08:35:31;;;;;;;7.70;1.30;;;;;;;12.34;100.00;96918.56;5033385;28;20124;-68
2023/11/15 08:37:58;;;;;;;6.32;1.40;;;;;;;12.06;100.00;96921.69;5029916;28;20052;-68
2023/11/15 08:40:25;;;;;;;6.65;1.15;;;;;;;12.14;100.00;96915.16;5023829;28;20076;-69
2023/11/15 08:42:51;;;;;;;5.65;1.20;;;;;;;12.46;100.00;96923.03;5018849;28;20361;-68
2023/11/15 08:45:20;;;;;;;6.82;1.25;;;;;;;12.35;100.00;96911.91;5004586;28;20439;-68
2023/11/15 08:47:46;;;;;;;4.20;1.15;;;;;;;12.55;100.00;96928.22;5027483;28;20049;-68
2023/11/15 08:50:14;;;;;;;5.47;1.48;;;;;;;12.62;100.00;96925.56;5023351;28;20044;-68
2023/11/15 08:52:39;;;;;;;3.33;1.00;;;;;;;12.75;100.00;96915.91;5031678;28;20032;-68
2023/11/15 08:55:06;;;;;;;4.07;0.90;;;;;;;12.42;100.00;96920.25;5017101;28;20052;-67
2023/11/15 08:57:32;;;;;;;5.07;1.10;;;;;;;12.55;100.00;96912.53;5026876;28;20042;-68
2023/11/15 08:59:58;;;;;;;8.05;1.20;;;;;;;12.30;100.00;96914.97;5028752;28;20041;-69
2023/11/15 09:02:23;;;;;;;5.07;1.45;;;;;;;12.27;100.00;96926.69;5015310;28;20710;-69
2023/11/15 09:04:52;;;;;;;3.55;1.20;;;;;;;12.70;100.00;96924.50;5025972;28;20057;-69
2023/11/15 09:07:20;;;;;;;7.13;1.42;;;;;;;12.30;100.00;96922.41;5030666;28;20127;-69
2023/11/15 09:09:46;;;;;;;8.32;1.40;;;;;;;12.79;100.00;96924.19;5025194;28;20048;-67
2023/11/15 09:12:12;;;;;;;4.13;0.77;;;;;;;12.96;100.00;96929.09;5018549;28;20042;-68
2023/11/15 09:14:38;;;;;;;5.25;1.00;;;;;;;12.57;100.00;96912.97;5041198;28;20491;-67
2023/11/15 09:17:05;;;;;;;7.25;1.10;;;;;;;12.93;100.00;96935.34;5024452;28;20049;-67
2023/11/15 09:19:34;;;;;;;6.85;0.95;;;;;;;13.35;98.26;96939.72;5019418;28;20087;-67
2023/11/15 09:22:03;;;;;;;6.45;1.15;;;;;;;13.72;94.48;96943.56;5017130;28;20052;-67
2023/11/15 09:24:29;;;;;;;3.67;0.90;;;;;;;13.83;90.15;96938.13;5021026;28;20041;-68
2023/11/15 09:26:57;;;;;;;5.90;1.08;;;;;;;14.37;86.05;96935.72;5022431;28;20079;-68
2023/11/15 09:29:24;;;;;;;8.07;1.00;;;;;;;13.94;86.57;96934.28;5031054;28;20477;-68
2023/11/15 09:31:49;;;;;;;4.35;0.88;;;;;;;13.64;90.44;96923.44;5025670;28;20128;-68
2023/11/15 09:34:16;;;;;;;6.00;1.02;;;;;;;13.96;87.95;96939.44;5017380;28;20149;-68
2023/11/15 09:36:42;;;;;;;6.60;1.17;;;;;;;13.54;91.00;96944.22;5020233;28;20492;-67
2023/11/15 09:39:09;;;;;;;4.15;0.88;;;;;;;13.56;90.39;96933.63;5014764;28;20064;-68
2023/11/15 09:41:36;;;;;;;4.13;0.70;;;;;;;14.37;86.86;96949.50;5027584;28;20099;-68
2023/11/15 09:44:09;;;;;;;7.90;1.00;;;;;;;13.85;84.54;96950.38;5027511;28;20049;-68
2023/11/15 09:46:37;;;;;;;5.80;0.90;;;;;;;13.75;85.46;96962.06;5022591;28;20037;-67
2023/11/15 09:49:04;;;;;;;6.45;1.10;;;;;;;13.39;85.33;96970.78;5030394;28;20048;-67
2023/11/15 09:51:34;;;;;;;3.92;0.90;;;;;;;12.74;89.18;96963.78;5024151;28;20033;-67
2023/11/15 09:54:06;;;;;;;7.57;1.17;;;;;;;12.46;93.33;96966.97;5032500;28;20037;-68
2023/11/15 09:56:32;;;;;;;7.55;1.40;;;;;;;12.46;94.36;96961.50;5012626;28;20431;-67
2023/11/15 09:58:58;;;;;;;5.38;1.08;;;;;;;12.28;94.88;96960.44;5022333;28;20048;-67
2023/11/15 10:01:24;;;;;;;4.75;1.20;;;;;;;12.69;91.60;96963.31;5018110;28;20596;-68
2023/11/15 10:03:50;;;;;;;6.05;1.30;;;;;;;12.89;91.73;96967.50;5022910;28;20492;-68
2023/11/15 10:06:16;;;;;;;6.05;1.10;;;;;;;12.43;92.43;96971.25;5036286;28;20152;-68
2023/11/15 10:08:53;;;;;;;8.27;1.20;;;;;;;12.52;91.69;96950.97;5036635;28;20042;-68
2023/11/15 10:11:24;;;;;;;7.40;1.30;;;;;;;12.09;92.98;96945.69;5018047;28;20153;-69
2023/11/15 10:14:07;;;;;;;6.45;1.30;;;;;;;12.00;94.97;96980.84;5030924;28;20488;-68
2023/11/15 10:16:34;;;;;;;8.75;1.40;;;;;;;11.88;97.19;96972.78;5023237;28;20135;-68
2023/11/15 10:19:00;;;;;;;4.35;1.15;;;;;;;11.66;97.95;96966.94;5030051;28;20052;-68
2023/11/15 10:21:28;;;;;;;6.63;1.42;;;;;;;11.41;100.00;96966.53;5038154;28;20317;-68
2023/11/15 10:24:10;;;;;;;5.38;1.20;;;;;;;11.69;99.24;96971.72;5035670;28;20045;-68
2023/11/15 10:26:38;;;;;;;4.90;1.10;;;;;;;11.52;99.44;96975.72;5027191;28;20128;-68
2023/11/15 10:29:12;;;;;;;7.22;1.05;;;;;;;11.75;98.43;96974.94;5029302;28;20038;-67
2023/11/15 10:31:51;;;;;;;7.00;0.88;;;;;;;11.83;95.82;96982.91;5030501;28;20048;-68
2023/11/15 10:34:17;;;;;;;7.38;1.17;;;;;;;12.08;93.31;96985.25;5019762;28;20037;-68
2023/11/15 10:36:42;;;;;;;4.65;1.10;;;;;;;12.26;94.22;96977.28;5041977;28;20037;-68
2023/11/15 10:39:11;;;;;;;5.40;1.10;;;;;;;11.78;89.64;96983.22;5029619;28;20032;-66
2023/11/15 10:41:38;;;;;;;5.85;0.90;;;;;;;11.64;90.17;96975.53;5034539;28;20044;-69
2023/11/15 10:44:07;;;;;;;5.95;1.13;;;;;;;11.50;91.75;96993.72;5022050;28;20037;-68
2023/11/15 10:46:36;;;;;;;7.85;1.40;;;;;;;11.49;91.51;97001.16;5034883;28;20041;-69
2023/11/15 10:49:04;;;;;;;4.43;1.25;;;;;;;11.86;90.87;96998.63;5041103;28;20047;-66
2023/11/15 10:51:40;;;;;;;6.38;1.20;;;;;;;11.86;87.99;96984.91;5031521;28;20041;-68
2023/11/15 10:54:12;;;;;;;7.82;1.00;;;;;;;11.64;89.62;96986.50;5017709;28;20416;-68
2023/11/15 10:56:39;;;;;;;9.25;2.00;;;;;;;11.53;91.28;96985.53;5033042;28;20128;-68
2023/11/15 10:59:05;;;;;;;8.52;1.40;;;;;;;11.59;93.25;96980.53;5018861;28;20079;-67
2023/11/15 11:01:31;;;;;;;5.35;1.00;;;;;;;11.32;92.94;96974.19;5038957;28;20034;-68
2023/11/15 11:03:58;;;;;;;11.20;1.05;;;;;;;11.43;93.18;96986.97;5029624;28;20140;-68
2023/11/15 11:06:36;;;;;;;5.18;1.13;;;;;;;11.80;92.41;97004.81;5025182;28;20459;-68
2023/11/15 11:09:11;;;;;;;3.83;1.00;;;;;;;11.58;92.79;96998.19;5027303;28;20110;-68
2023/11/15 11:11:44;;;;;;;7.10;1.52;;;;;;;11.17;93.80;96995.09;5041405;28;20642;-68
2023/11/15 11:14:15;;;;;;;6.03;1.10;;;;;;;11.07;95.69;96991.78;5037250;28;20385;-67
2023/11/15 11:16:43;;;;;;;13.02;1.10;;;;;;;11.26;95.32;97006.63;5027850;28;20084;-67
2023/11/15 11:19:11;;;;;;;4.63;1.23;;;;;;;11.16;93.85;97005.25;5025269;28;20128;-67
2023/11/15 11:22:05;;;;;;;8.40;1.30;;;;;;;11.23;95.35;97010.88;5026635;28;20526;-67
2023/11/15 11:24:31;;;;;;;7.05;1.10;;;;;;;11.20;96.72;97000.63;5029323;28;20120;-68
2023/11/15 11:27:12;;;;;;;4.25;0.85;;;;;;;11.11;95.70;97000.09;5028595;28;20064;-68
2023/11/15 11:30:05;;;;;;;6.93;1.35;;;;;;;11.21;94.72;96998.69;5025955;28;20033;-68
2023/11/15 11:32:31;;;;;;;8.40;1.00;;;;;;;11.68;92.77;97003.03;5012106;28;20384;-68